Time;durP1;ratioP1;P1;durP2;ratioP2;P2;SDS_P1;SDS_P2;PMS_P1;PMS_P2;Temp;Humidity;BMP_temperature;BMP_pressure;BME280_temperature;BME280_humidity;BME280_pressure;Samples;Min_cycle;Max_cycle;Signal;HPM_P1;HPM_P2
2022/06/28 00:02:24;;;;;;;3.22;2.78;;;16.40;76.90;;;;;;5036641;28;20748;-68
2022/06/28 00:04:50;;;;;;;3.80;3.00;;;16.40;77.50;;;;;;5049960;28;20025;-68
2022/06/28 00:07:15;;;;;;;3.60;2.90;;;16.40;76.80;;;;;;5041683;28;20116;-68
2022/06/28 00:09:41;;;;;;;3.55;2.65;;;16.40;76.80;;;;;;5050102;28;20143;-68
2022/06/28 00:12:07;;;;;;;3.20;2.90;;;16.40;76.90;;;;;;5045057;28;20059;-68
2022/06/28 00:17:17;;;;;;;3.67;2.80;;;16.40;77.20;;;;;;5031734;28;20424;-69
2022/06/28 00:19:43;;;;;;;4.10;3.33;;;16.30;77.10;;;;;;5039438;28;20476;-68
2022/06/28 00:22:08;;;;;;;3.63;3.00;;;16.40;77.30;;;;;;5040642;28;20024;-68
2022/06/28 00:24:34;;;;;;;4.18;3.00;;;16.40;77.20;;;;;;5048695;28;20032;-67
2022/06/28 00:27:00;;;;;;;4.53;3.00;;;16.40;77.20;;;;;;5042338;28;20028;-67
2022/06/28 00:29:25;;;;;;;3.92;3.42;;;16.40;77.20;;;;;;5048156;28;20603;-67
2022/06/28 00:31:51;;;;;;;4.30;3.35;;;16.30;77.30;;;;;;5046845;28;20133;-67
2022/06/28 00:34:16;;;;;;;3.67;3.00;;;16.30;77.40;;;;;;5043985;28;20028;-69
2022/06/28 00:36:42;;;;;;;4.55;3.13;;;16.30;77.40;;;;;;5034594;28;20079;-69
2022/06/28 00:39:08;;;;;;;4.30;3.50;;;16.30;77.50;;;;;;5051040;28;20059;-69
2022/06/28 00:41:34;;;;;;;3.67;3.00;;;16.30;77.40;;;;;;5048803;28;20089;-69
2022/06/28 00:44:00;;;;;;;4.85;3.53;;;16.30;77.40;;;;;;5051627;28;20123;-68
2022/06/28 00:46:26;;;;;;;4.57;3.13;;;16.30;77.50;;;;;;5048844;28;20013;-69
2022/06/28 00:48:52;;;;;;;3.85;3.38;;;16.30;77.50;;;;;;5046903;28;20059;-69
2022/06/28 00:51:17;;;;;;;4.35;3.35;;;16.30;77.60;;;;;;5048917;28;20025;-69
2022/06/28 00:53:43;;;;;;;4.13;3.50;;;16.20;77.60;;;;;;5044955;28;20026;-67
2022/06/28 00:56:09;;;;;;;5.30;3.30;;;16.20;77.60;;;;;;5044630;28;20208;-67
2022/06/28 00:58:34;;;;;;;4.43;3.20;;;16.20;77.70;;;;;;5048384;28;20035;-68
2022/06/28 01:01:00;;;;;;;6.28;4.70;;;16.20;77.70;;;;;;5042751;28;20029;-68
2022/06/28 01:03:27;;;;;;;4.72;4.20;;;16.20;77.80;;;;;;5044697;28;20050;-69
2022/06/28 01:05:53;;;;;;;4.82;4.20;;;16.10;77.80;;;;;;5041385;28;20033;-69
2022/06/28 01:08:19;;;;;;;5.18;3.97;;;16.10;78.00;;;;;;5039063;28;20029;-69
2022/06/28 01:10:46;;;;;;;5.53;3.88;;;16.10;78.10;;;;;;5051049;28;20021;-68
2022/06/28 01:13:12;;;;;;;4.72;3.83;;;16.00;78.10;;;;;;5040673;28;20029;-69
2022/06/28 01:15:40;;;;;;;4.45;4.05;;;16.00;78.10;;;;;;5045094;28;20090;-69
2022/06/28 01:18:06;;;;;;;5.80;4.18;;;16.00;78.10;;;;;;5042053;28;20083;-67
2022/06/28 01:20:32;;;;;;;3.97;3.40;;;16.00;78.10;;;;;;5053069;28;20029;-68
2022/06/28 01:22:58;;;;;;;6.40;3.88;;;16.00;78.10;;;;;;5037731;28;20399;-67
2022/06/28 01:25:24;;;;;;;6.63;3.97;;;16.00;78.00;;;;;;5050281;28;20394;-67
2022/06/28 01:27:54;;;;;;;4.60;4.15;;;16.00;77.90;;;;;;5043545;28;20391;-68
2022/06/28 01:30:21;;;;;;;4.60;3.95;;;16.00;77.90;;;;;;5050868;28;20024;-68
2022/06/28 01:32:47;;;;;;;4.28;3.88;;;15.90;77.80;;;;;;5048825;28;20017;-68
2022/06/28 01:35:13;;;;;;;6.20;4.47;;;15.90;77.80;;;;;;5050949;28;20075;-69
2022/06/28 01:37:39;;;;;;;4.15;3.75;;;16.00;78.40;;;;;;5045157;28;20408;-68
2022/06/28 01:40:06;;;;;;;5.05;4.13;;;15.90;77.70;;;;;;5049197;28;20025;-69
2022/06/28 01:42:32;;;;;;;4.78;4.15;;;15.90;77.80;;;;;;5048712;28;20037;-68
2022/06/28 01:44:59;;;;;;;4.60;3.92;;;15.80;77.80;;;;;;5046786;28;20035;-69
2022/06/28 01:47:27;;;;;;;4.82;3.78;;;15.80;77.80;;;;;;5042343;28;20908;-68
2022/06/28 01:49:53;;;;;;;4.88;3.95;;;15.70;77.90;;;;;;5049134;28;20067;-68
2022/06/28 01:52:20;;;;;;;4.85;4.20;;;15.70;78.00;;;;;;5046368;28;20432;-68
2022/06/28 01:54:45;;;;;;;5.43;3.83;;;15.60;78.20;;;;;;5044403;28;20078;-67
2022/06/28 01:57:11;;;;;;;5.03;4.53;;;15.60;78.30;;;;;;5048262;28;20029;-68
2022/06/28 01:59:38;;;;;;;4.28;3.83;;;15.60;78.60;;;;;;5048011;28;20036;-67
2022/06/28 02:02:04;;;;;;;4.95;4.10;;;15.60;78.40;;;;;;5039199;28;20423;-68
2022/06/28 02:04:30;;;;;;;4.85;4.35;;;15.50;78.50;;;;;;5043217;28;20029;-68
2022/06/28 02:06:56;;;;;;;6.55;4.68;;;15.50;78.60;;;;;;5047003;28;20025;-69
2022/06/28 02:09:22;;;;;;;4.82;4.38;;;15.50;78.60;;;;;;5046479;28;20029;-68
2022/06/28 02:11:48;;;;;;;5.07;4.47;;;15.40;78.70;;;;;;5047899;28;20114;-69
2022/06/28 02:14:14;;;;;;;5.30;4.47;;;15.40;78.90;;;;;;5043898;28;20491;-68
2022/06/28 02:16:39;;;;;;;5.07;4.57;;;15.30;78.90;;;;;;5044093;28;20029;-68
2022/06/28 02:19:05;;;;;;;5.05;4.40;;;15.30;79.00;;;;;;5041482;28;20103;-68
2022/06/28 02:21:39;;;;;;;5.38;4.07;;;15.30;79.00;;;;;;5036551;28;20025;-69
2022/06/28 02:24:06;;;;;;;4.50;4.05;;;15.30;79.00;;;;;;5034002;28;20036;-69
2022/06/28 02:26:32;;;;;;;5.28;4.40;;;15.30;78.90;;;;;;5040367;28;20029;-69
2022/06/28 02:29:02;;;;;;;5.70;4.78;;;15.30;78.70;;;;;;5045098;28;20102;-69
2022/06/28 02:31:28;;;;;;;5.75;4.70;;;15.30;78.60;;;;;;5041783;28;20067;-69
2022/06/28 02:33:54;;;;;;;5.18;3.92;;;15.30;78.40;;;;;;5044586;28;20056;-69
2022/06/28 02:41:43;;;;;;;6.00;4.72;;;15.20;78.50;;;;;;5037813;28;20036;-68
2022/06/28 02:44:09;;;;;;;4.90;4.32;;;15.20;78.60;;;;;;5046657;28;20036;-69
2022/06/28 02:46:35;;;;;;;6.18;4.30;;;15.10;78.70;;;;;;5044342;28;20040;-69
2022/06/28 02:49:01;;;;;;;6.03;4.60;;;15.10;78.70;;;;;;5044253;28;20029;-68
2022/06/28 02:51:27;;;;;;;5.13;4.63;;;15.10;78.70;;;;;;5041663;28;20140;-68
2022/06/28 02:53:53;;;;;;;6.68;4.32;;;15.10;78.70;;;;;;5046922;28;20446;-67
2022/06/28 02:56:19;;;;;;;5.22;4.38;;;15.10;78.70;;;;;;5044588;28;20029;-68
2022/06/28 02:58:45;;;;;;;4.93;4.40;;;15.00;78.70;;;;;;5046257;28;20513;-68
2022/06/28 03:01:10;;;;;;;4.38;3.97;;;15.00;78.80;;;;;;5046932;28;20060;-68
2022/06/28 03:03:36;;;;;;;4.70;4.30;;;15.00;78.90;;;;;;5046368;28;20036;-68
2022/06/28 03:06:02;;;;;;;5.03;4.53;;;15.00;79.00;;;;;;5048926;28;20039;-69
2022/06/28 03:08:28;;;;;;;5.47;4.72;;;14.90;79.10;;;;;;5043562;28;20025;-68
2022/06/28 03:10:54;;;;;;;6.03;5.43;;;14.90;79.10;;;;;;5042471;28;20494;-68
2022/06/28 03:13:19;;;;;;;5.07;4.57;;;14.90;79.20;;;;;;5047788;28;20112;-68
2022/06/28 03:15:45;;;;;;;5.72;5.10;;;14.90;79.30;;;;;;5048222;28;20036;-68
2022/06/28 03:18:10;;;;;;;7.20;5.15;;;14.90;79.20;;;;;;5041305;28;20100;-69
2022/06/28 03:20:36;;;;;;;6.13;5.38;;;14.90;79.20;;;;;;5037567;28;20037;-68
2022/06/28 03:23:01;;;;;;;6.32;5.30;;;14.90;79.10;;;;;;5044875;28;20033;-69
2022/06/28 03:25:27;;;;;;;6.45;5.80;;;14.90;79.10;;;;;;5044488;28;20064;-69
2022/06/28 03:27:53;;;;;;;6.72;6.03;;;14.90;79.20;;;;;;5043400;28;20028;-69
2022/06/28 03:30:18;;;;;;;7.55;6.18;;;14.90;79.20;;;;;;5035616;28;20053;-69
2022/06/28 03:32:44;;;;;;;8.00;7.20;;;14.90;79.20;;;;;;5038857;28;20029;-70
2022/06/28 03:35:10;;;;;;;7.07;6.38;;;15.00;79.20;;;;;;5044820;28;20017;-70
2022/06/28 03:37:36;;;;;;;7.00;6.30;;;15.00;79.00;;;;;;5043710;28;21770;-71
2022/06/28 03:40:03;;;;;;;9.02;6.70;;;15.00;79.10;;;;;;5044466;28;20028;-70
2022/06/28 03:42:29;;;;;;;7.38;6.43;;;14.90;79.20;;;;;;5045647;28;20025;-70
2022/06/28 03:44:55;;;;;;;7.60;6.18;;;14.90;79.20;;;;;;5044199;28;20550;-70
2022/06/28 03:47:20;;;;;;;6.47;5.85;;;14.90;79.30;;;;;;5046997;28;20060;-70
2022/06/28 03:49:47;;;;;;;7.95;7.18;;;14.90;79.30;;;;;;5041876;28;20104;-69
2022/06/28 03:52:14;;;;;;;8.98;7.63;;;14.90;79.60;;;;;;5036017;28;20028;-69
2022/06/28 03:54:39;;;;;;;7.75;6.95;;;14.90;80.10;;;;;;5042010;28;20048;-69
2022/06/28 03:57:05;;;;;;;7.15;6.32;;;14.80;80.40;;;;;;5044837;28;20515;-69
2022/06/28 03:59:31;;;;;;;5.88;5.28;;;14.80;80.50;;;;;;5045855;28;20075;-69
2022/06/28 04:01:56;;;;;;;6.60;5.90;;;14.80;80.50;;;;;;5047063;28;20029;-69
2022/06/28 04:04:22;;;;;;;6.53;5.70;;;14.90;80.40;;;;;;5046789;28;20033;-69
2022/06/28 04:06:48;;;;;;;7.00;6.07;;;14.90;80.60;;;;;;5046152;28;20391;-68
2022/06/28 04:09:13;;;;;;;6.80;5.80;;;14.90;80.70;;;;;;5049955;28;20017;-69
2022/06/28 04:11:39;;;;;;;6.80;5.70;;;14.90;80.80;;;;;;5046460;28;20110;-69
2022/06/28 04:14:04;;;;;;;6.38;5.70;;;14.90;80.80;;;;;;5049052;28;20436;-69
2022/06/28 04:16:30;;;;;;;6.03;5.35;;;14.90;80.70;;;;;;5045540;28;20025;-69
2022/06/28 04:18:56;;;;;;;7.50;6.50;;;15.00;80.70;;;;;;5040077;28;20025;-69
2022/06/28 04:21:21;;;;;;;7.88;6.97;;;15.00;80.70;;;;;;5046763;28;20028;-68
2022/06/28 04:23:47;;;;;;;6.38;5.78;;;15.00;81.00;;;;;;5041948;28;20117;-69
2022/06/28 04:26:13;;;;;;;7.10;6.30;;;15.00;81.40;;;;;;5034568;28;20133;-68
2022/06/28 04:28:39;;;;;;;8.57;7.00;;;15.00;81.50;;;;;;5038842;28;20079;-69
2022/06/28 04:31:05;;;;;;;7.43;6.20;;;15.00;81.80;;;;;;5038097;28;20387;-68
2022/06/28 04:33:31;;;;;;;8.75;7.57;;;15.00;82.00;;;;;;5045161;28;20025;-68
2022/06/28 04:35:57;;;;;;;8.10;6.55;;;15.00;82.20;;;;;;5032472;28;20120;-69
2022/06/28 04:38:23;;;;;;;6.85;5.22;;;15.00;82.60;;;;;;5042326;28;20531;-67
2022/06/28 04:40:49;;;;;;;9.63;7.25;;;15.00;82.50;;;;;;5042511;28;20049;-67
2022/06/28 04:43:14;;;;;;;7.95;5.75;;;15.00;82.60;;;;;;5041505;28;20522;-67
2022/06/28 04:45:40;;;;;;;6.75;5.07;;;15.10;82.70;;;;;;5040441;28;20036;-68
2022/06/28 04:48:06;;;;;;;7.68;5.55;;;15.10;82.70;;;;;;5044734;28;20017;-68
2022/06/28 04:50:32;;;;;;;6.80;5.57;;;15.10;82.50;;;;;;5043134;28;20026;-68
2022/06/28 04:52:57;;;;;;;7.40;5.47;;;15.10;82.70;;;;;;5042348;28;20021;-67
2022/06/28 04:55:23;;;;;;;5.18;4.10;;;15.40;82.70;;;;;;5039108;28;20017;-68
2022/06/28 04:57:48;;;;;;;5.05;3.78;;;16.00;81.30;;;;;;5035513;28;20060;-69
2022/06/28 05:00:14;;;;;;;5.45;4.10;;;16.60;79.60;;;;;;5035582;28;20429;-69
2022/06/28 05:02:41;;;;;;;3.78;3.35;;;17.10;78.00;;;;;;5037970;28;20032;-68
2022/06/28 05:05:08;;;;;;;6.10;3.97;;;17.60;76.50;;;;;;5044129;28;20021;-68
2022/06/28 05:07:34;;;;;;;5.65;4.10;;;18.00;75.00;;;;;;5042354;28;20025;-68
2022/06/28 05:10:00;;;;;;;4.32;3.70;;;18.20;74.00;;;;;;5047248;28;20017;-68
2022/06/28 05:12:26;;;;;;;3.63;3.30;;;18.50;73.20;;;;;;5043623;28;20036;-68
2022/06/28 05:14:51;;;;;;;4.80;3.80;;;18.80;72.20;;;;;;5050283;28;20028;-69
2022/06/28 05:17:17;;;;;;;3.63;2.85;;;19.10;71.20;;;;;;5040669;28;20035;-68
2022/06/28 05:19:42;;;;;;;3.33;2.90;;;19.20;70.70;;;;;;5048685;28;20081;-67
2022/06/28 05:22:08;;;;;;;4.05;3.00;;;19.50;70.10;;;;;;5048565;28;20031;-68
2022/06/28 05:24:35;;;;;;;4.68;3.20;;;19.70;69.40;;;;;;5040435;28;20032;-69
2022/06/28 05:27:01;;;;;;;3.80;2.85;;;19.90;69.10;;;;;;5043389;28;20017;-70
2022/06/28 05:29:26;;;;;;;4.63;3.03;;;20.10;68.60;;;;;;5044295;28;20025;-68
2022/06/28 05:31:52;;;;;;;3.58;2.80;;;20.30;68.30;;;;;;5042465;28;20084;-68
2022/06/28 05:34:17;;;;;;;4.65;2.63;;;20.40;68.00;;;;;;5042436;28;20022;-67
2022/06/28 05:36:43;;;;;;;4.03;2.90;;;20.50;67.80;;;;;;5041670;28;20518;-68
2022/06/28 05:39:09;;;;;;;4.57;2.90;;;20.50;67.70;;;;;;5042138;28;20032;-68
2022/06/28 05:41:35;;;;;;;4.20;2.72;;;20.50;67.60;;;;;;5045360;28;20403;-68
2022/06/28 05:44:01;;;;;;;3.92;3.10;;;20.40;67.80;;;;;;5051042;28;20035;-68
2022/06/28 05:46:28;;;;;;;4.35;2.70;;;20.30;67.60;;;;;;5050952;28;20040;-68
2022/06/28 05:48:54;;;;;;;3.72;2.50;;;20.20;67.90;;;;;;5047781;28;20083;-69
2022/06/28 05:51:19;;;;;;;4.55;3.10;;;20.10;68.20;;;;;;5047343;28;20080;-68
2022/06/28 05:53:45;;;;;;;4.57;2.58;;;19.90;68.20;;;;;;5051607;28;20060;-68
2022/06/28 05:56:10;;;;;;;5.18;2.75;;;19.70;68.80;;;;;;5051404;28;20024;-68
2022/06/28 05:58:36;;;;;;;3.58;2.53;;;19.70;69.20;;;;;;5046251;28;20632;-67
2022/06/28 06:01:03;;;;;;;5.72;3.53;;;19.70;69.10;;;;;;5049854;28;20143;-69
2022/06/28 06:03:28;;;;;;;3.60;2.20;;;19.50;68.70;;;;;;5041081;28;20034;-68
2022/06/28 06:05:54;;;;;;;4.63;2.40;;;19.40;69.40;;;;;;5043429;28;20048;-68
2022/06/28 06:08:20;;;;;;;4.65;2.50;;;19.40;69.50;;;;;;5043582;28;20063;-69
2022/06/28 06:10:46;;;;;;;4.93;2.30;;;19.50;69.40;;;;;;5039186;28;20018;-68
2022/06/28 06:13:11;;;;;;;4.38;2.55;;;19.50;69.50;;;;;;5050297;28;20087;-68
2022/06/28 06:15:37;;;;;;;5.47;2.78;;;19.50;69.40;;;;;;5045193;28;20025;-68
2022/06/28 06:18:02;;;;;;;4.40;2.20;;;19.50;69.30;;;;;;5045583;28;20029;-69
2022/06/28 06:20:28;;;;;;;4.78;2.80;;;19.60;69.30;;;;;;5042979;28;20040;-67
2022/06/28 06:22:53;;;;;;;4.75;2.70;;;19.70;69.10;;;;;;5046537;28;20090;-68
2022/06/28 06:25:19;;;;;;;8.85;3.45;;;19.70;68.90;;;;;;5047941;28;20040;-67
2022/06/28 06:27:45;;;;;;;4.13;2.80;;;19.70;68.40;;;;;;5050973;28;20422;-67
2022/06/28 06:30:11;;;;;;;3.88;2.40;;;19.60;68.60;;;;;;5041004;28;20079;-67
2022/06/28 06:32:37;;;;;;;5.72;3.03;;;19.80;68.60;;;;;;5035730;28;20030;-67
2022/06/28 06:35:03;;;;;;;7.07;3.38;;;19.90;68.40;;;;;;5042706;28;20041;-67
2022/06/28 06:37:32;;;;;;;7.55;3.38;;;20.00;68.30;;;;;;5046163;28;20112;-67
2022/06/28 06:39:57;;;;;;;6.45;3.30;;;20.00;67.70;;;;;;5044405;28;20112;-67
2022/06/28 06:42:23;;;;;;;6.80;3.80;;;20.00;67.40;;;;;;5045856;28;20096;-68
2022/06/28 06:44:48;;;;;;;8.10;3.88;;;20.00;67.10;;;;;;5043267;28;20086;-69
2022/06/28 06:47:14;;;;;;;6.07;3.40;;;20.00;66.90;;;;;;5045180;28;20029;-68
2022/06/28 06:49:39;;;;;;;7.82;4.43;;;20.00;67.20;;;;;;5044114;28;20056;-68
2022/06/28 06:52:05;;;;;;;7.95;3.92;;;20.10;66.90;;;;;;5047588;28;20548;-70
2022/06/28 06:54:31;;;;;;;7.28;4.05;;;20.20;66.80;;;;;;5046349;28;20029;-68
2022/06/28 06:56:56;;;;;;;8.32;3.90;;;20.20;66.80;;;;;;5048850;28;20043;-68
2022/06/28 06:59:22;;;;;;;6.07;3.53;;;20.30;67.20;;;;;;5040386;28;20033;-67
2022/06/28 07:01:48;;;;;;;7.65;3.50;;;20.40;66.50;;;;;;5049277;28;20028;-68
2022/06/28 07:04:15;;;;;;;6.57;3.40;;;20.50;66.20;;;;;;5044031;28;20020;-68
2022/06/28 07:06:41;;;;;;;4.90;2.95;;;20.60;66.20;;;;;;5047698;28;20159;-67
2022/06/28 07:09:06;;;;;;;6.95;3.33;;;20.80;66.00;;;;;;5039371;28;20096;-67
2022/06/28 07:11:33;;;;;;;6.78;2.78;;;20.90;65.60;;;;;;5031934;28;20072;-67
2022/06/28 07:14:00;;;;;;;7.50;2.78;;;20.90;65.60;;;;;;5043514;28;20078;-68
2022/06/28 07:16:26;;;;;;;6.05;3.20;;;21.10;65.50;;;;;;5051210;28;20036;-68
2022/06/28 07:18:51;;;;;;;8.27;3.40;;;21.20;64.60;;;;;;5046801;28;20025;-68
2022/06/28 07:21:17;;;;;;;10.48;3.40;;;21.20;64.40;;;;;;5048155;28;20029;-67
2022/06/28 07:23:42;;;;;;;9.40;2.90;;;21.20;64.10;;;;;;5049595;28;20028;-67
2022/06/28 07:26:08;;;;;;;7.88;2.80;;;21.00;63.40;;;;;;5040793;28;20167;-68
2022/06/28 07:28:34;;;;;;;10.60;2.72;;;21.10;64.00;;;;;;5047036;28;20029;-68
2022/06/28 07:30:59;;;;;;;6.07;2.28;;;21.30;63.70;;;;;;5039125;28;20040;-67
2022/06/28 07:33:25;;;;;;;9.45;2.95;;;21.40;63.70;;;;;;5047115;28;20438;-68
2022/06/28 07:35:50;;;;;;;8.38;3.13;;;21.70;63.40;;;;;;5046049;28;20021;-69
2022/06/28 07:38:16;;;;;;;5.63;2.60;;;21.70;62.90;;;;;;5049276;28;20041;-68
2022/06/28 07:40:42;;;;;;;6.60;2.42;;;21.80;62.60;;;;;;5040523;28;20036;-67
2022/06/28 07:43:07;;;;;;;6.45;2.20;;;21.90;62.50;;;;;;5049685;28;20025;-68
2022/06/28 07:45:36;;;;;;;10.02;3.13;;;22.00;62.20;;;;;;5035321;28;20033;-68
2022/06/28 07:48:06;;;;;;;7.82;2.53;;;22.00;60.80;;;;;;5044202;28;20462;-67
2022/06/28 07:53:15;;;;;;;6.13;1.92;;;22.00;61.10;;;;;;5047993;28;20573;-69
2022/06/28 07:55:41;;;;;;;9.70;2.60;;;22.10;60.90;;;;;;5034744;28;20053;-69
2022/06/28 07:58:06;;;;;;;8.88;3.10;;;22.10;60.00;;;;;;5040493;28;20079;-68
2022/06/28 08:00:32;;;;;;;6.53;2.13;;;22.00;59.70;;;;;;5042469;28;20036;-68
2022/06/28 08:02:58;;;;;;;6.45;2.30;;;22.00;59.20;;;;;;5047613;28;20021;-67
2022/06/28 08:05:23;;;;;;;9.45;3.25;;;22.00;58.70;;;;;;5043625;28;20032;-69
2022/06/28 08:07:49;;;;;;;11.98;2.45;;;21.80;57.50;;;;;;5035940;28;20144;-69
2022/06/28 08:10:15;;;;;;;6.05;2.10;;;21.80;58.80;;;;;;5045122;28;20025;-66
2022/06/28 08:12:41;;;;;;;9.32;3.30;;;21.80;59.00;;;;;;5047452;28;20033;-69
2022/06/28 08:15:07;;;;;;;6.07;2.05;;;21.80;58.10;;;;;;5038790;28;20353;-69
2022/06/28 08:17:34;;;;;;;8.40;2.50;;;21.90;58.60;;;;;;5045149;28;21278;-69
2022/06/28 08:20:00;;;;;;;6.30;2.30;;;22.00;58.00;;;;;;5045735;28;20117;-69
2022/06/28 08:22:25;;;;;;;3.42;1.70;;;22.10;57.60;;;;;;5042125;28;20104;-68
2022/06/28 08:24:51;;;;;;;6.78;2.13;;;22.10;57.70;;;;;;5047231;28;20463;-68
2022/06/28 08:27:16;;;;;;;6.63;2.22;;;22.20;57.70;;;;;;5049036;28;20033;-68
2022/06/28 08:29:42;;;;;;;4.50;1.48;;;22.20;56.50;;;;;;5042415;28;20092;-69
2022/06/28 08:32:10;;;;;;;5.80;1.70;;;22.20;56.60;;;;;;5049191;28;20013;-68
2022/06/28 08:34:37;;;;;;;5.15;1.60;;;22.50;56.70;;;;;;5048576;28;20032;-68
2022/06/28 08:37:03;;;;;;;4.18;1.30;;;22.50;55.20;;;;;;5040426;28;20442;-69
2022/06/28 08:39:29;;;;;;;3.22;1.20;;;22.50;55.20;;;;;;5043415;28;20027;-69
2022/06/28 08:41:55;;;;;;;4.30;1.48;;;22.50;54.10;;;;;;5042354;28;20033;-68
2022/06/28 08:44:22;;;;;;;2.88;1.05;;;22.60;54.10;;;;;;5045639;28;20028;-68
2022/06/28 08:46:52;;;;;;;3.45;1.35;;;22.70;53.80;;;;;;5037384;28;20547;-68
2022/06/28 08:49:56;;;;;;;5.03;1.58;;;22.80;53.50;;;;;;5047248;28;20029;-69
2022/06/28 08:52:23;;;;;;;4.45;1.40;;;22.90;53.90;;;;;;5047380;28;20028;-69
2022/06/28 08:54:50;;;;;;;5.18;1.67;;;23.00;53.20;;;;;;5052894;28;20483;-68
2022/06/28 08:57:19;;;;;;;4.47;1.55;;;22.90;52.30;;;;;;5045520;28;20021;-69
2022/06/28 08:59:46;;;;;;;3.72;1.40;;;22.80;51.40;;;;;;5053329;28;20017;-68
2022/06/28 09:02:14;;;;;;;4.47;1.50;;;22.70;51.90;;;;;;5048182;28;20407;-69
2022/06/28 09:04:40;;;;;;;5.43;1.80;;;22.80;50.70;;;;;;5049778;28;20048;-68
2022/06/28 09:07:06;;;;;;;5.47;1.60;;;22.90;51.50;;;;;;5051365;28;20056;-69
2022/06/28 09:09:31;;;;;;;3.55;1.38;;;22.80;50.80;;;;;;5053353;28;20053;-68
2022/06/28 09:11:57;;;;;;;3.65;1.45;;;22.80;51.90;;;;;;5047568;28;20498;-68
2022/06/28 09:14:30;;;;;;;3.33;1.25;;;22.80;51.40;;;;;;5049637;28;20032;-69
2022/06/28 09:16:57;;;;;;;2.35;1.00;;;22.90;50.10;;;;;;5041604;28;20045;-68
2022/06/28 09:19:41;;;;;;;2.72;1.00;;;23.00;50.30;;;;;;5046158;28;20029;-68
2022/06/28 09:22:06;;;;;;;2.85;1.10;;;23.20;50.10;;;;;;5042379;28;20048;-69
2022/06/28 09:24:33;;;;;;;4.50;1.20;;;23.30;49.70;;;;;;5049907;28;20059;-68
2022/06/28 09:27:02;;;;;;;3.88;1.30;;;23.40;50.00;;;;;;5047065;28;20028;-68
2022/06/28 09:29:28;;;;;;;6.25;1.50;;;23.30;49.90;;;;;;5043510;28;20045;-68
2022/06/28 09:31:54;;;;;;;2.70;1.27;;;23.40;50.00;;;;;;5036593;28;20056;-69
2022/06/28 09:34:19;;;;;;;3.08;1.20;;;23.50;49.80;;;;;;5051490;28;20415;-69
2022/06/28 09:36:56;;;;;;;4.20;1.23;;;23.50;49.80;;;;;;5043887;28;20426;-68
2022/06/28 09:39:27;;;;;;;5.82;1.88;;;23.60;50.00;;;;;;5044737;28;20420;-68
2022/06/28 09:41:54;;;;;;;3.55;1.35;;;23.40;47.90;;;;;;5045946;28;20648;-68
2022/06/28 09:44:25;;;;;;;5.47;1.45;;;23.40;49.00;;;;;;5051066;28;20035;-68
2022/06/28 09:46:52;;;;;;;3.20;1.15;;;23.50;48.80;;;;;;5042990;28;20032;-68
2022/06/28 09:49:18;;;;;;;4.35;1.40;;;23.50;48.60;;;;;;5040794;28;20493;-68
2022/06/28 09:51:45;;;;;;;2.85;1.38;;;23.60;48.00;;;;;;5045836;28;20024;-69
2022/06/28 09:54:11;;;;;;;3.60;1.10;;;23.60;47.90;;;;;;5041044;28;20020;-68
2022/06/28 09:56:39;;;;;;;2.30;1.00;;;23.80;47.90;;;;;;5042170;28;20034;-69
2022/06/28 09:59:05;;;;;;;4.88;1.63;;;23.80;47.70;;;;;;5049844;28;20044;-69
2022/06/28 10:01:32;;;;;;;2.38;0.98;;;23.70;45.90;;;;;;5044216;28;20111;-68
2022/06/28 10:03:58;;;;;;;2.47;0.90;;;23.60;46.30;;;;;;5043168;28;20039;-68
2022/06/28 10:06:24;;;;;;;3.00;0.90;;;23.70;46.90;;;;;;5041705;28;20411;-68
2022/06/28 10:08:50;;;;;;;3.40;1.23;;;23.90;47.00;;;;;;5043067;28;20051;-68
2022/06/28 10:11:16;;;;;;;2.55;1.30;;;24.00;46.60;;;;;;5041684;28;20031;-68
2022/06/28 10:16:57;;;;;;;2.95;1.10;;;24.00;46.00;;;;;;5043660;28;20546;-68
2022/06/28 10:19:25;;;;;;;2.05;0.93;;;24.10;46.40;;;;;;5045276;28;20033;-68
2022/06/28 10:21:57;;;;;;;4.25;1.10;;;24.20;45.90;;;;;;5046499;28;20025;-68
2022/06/28 10:24:22;;;;;;;2.70;0.70;;;24.10;44.30;;;;;;5046353;28;20108;-68
2022/06/28 10:27:27;;;;;;;2.70;0.82;;;24.00;45.00;;;;;;5047583;28;20140;-68
2022/06/28 10:29:59;;;;;;;1.15;0.50;;;24.20;44.60;;;;;;5021125;28;20033;-68
2022/06/28 10:32:43;;;;;;;2.10;0.70;;;24.20;44.60;;;;;;5026433;28;20041;-68
2022/06/28 10:35:09;;;;;;;2.60;0.73;;;24.30;44.60;;;;;;5025966;28;20024;-68
2022/06/28 10:37:35;;;;;;;1.88;0.90;;;24.30;44.30;;;;;;5046075;28;20036;-68
2022/06/28 10:40:22;;;;;;;2.47;1.00;;;24.40;44.20;;;;;;5044508;28;20025;-68
2022/06/28 10:42:50;;;;;;;2.20;1.00;;;24.40;43.90;;;;;;5047238;28;20391;-68
2022/06/28 10:45:16;;;;;;;3.53;1.00;;;24.50;44.20;;;;;;5045910;28;20119;-68
2022/06/28 10:48:10;;;;;;;2.72;0.95;;;24.60;43.40;;;;;;5047204;28;20420;-68
2022/06/28 10:50:56;;;;;;;3.58;0.95;;;24.50;43.00;;;;;;5043429;28;20566;-68
2022/06/28 10:53:21;;;;;;;2.97;1.00;;;24.50;43.50;;;;;;5038552;28;20025;-68
2022/06/28 10:56:25;;;;;;;2.47;0.75;;;24.50;43.30;;;;;;5036898;28;20032;-68
2022/06/28 10:59:05;;;;;;;1.25;0.70;;;24.70;43.20;;;;;;5044152;28;20086;-68
2022/06/28 11:01:39;;;;;;;2.60;1.20;;;24.80;43.30;;;;;;5038473;28;20056;-68
2022/06/28 11:04:21;;;;;;;2.58;1.55;;;25.00;43.60;;;;;;5040037;28;20048;-68
2022/06/28 11:06:48;;;;;;;;;;;25.00;43.20;;;;;;5046343;28;20028;-68
2022/06/28 11:09:43;;;;;;;2.05;0.98;;;25.00;43.20;;;;;;5045520;28;19931;-69
2022/06/28 11:12:16;;;;;;;2.42;1.08;;;25.00;43.10;;;;;;5035558;28;20036;-68
2022/06/28 11:14:59;;;;;;;3.25;1.02;;;25.00;43.20;;;;;;5047376;28;20021;-69
2022/06/28 11:17:29;;;;;;;4.47;0.88;;;25.10;43.30;;;;;;5040678;28;20041;-68
2022/06/28 11:20:00;;;;;;;2.60;0.80;;;25.10;43.10;;;;;;5041580;28;20091;-68
2022/06/28 11:22:27;;;;;;;2.88;1.00;;;25.30;42.60;;;;;;5045556;28;20033;-68
2022/06/28 11:24:54;;;;;;;1.88;0.80;;;25.20;42.50;;;;;;5040575;28;20065;-67
2022/06/28 11:27:21;;;;;;;3.35;1.02;;;25.20;42.50;;;;;;5040793;28;20029;-68
2022/06/28 11:30:14;;;;;;;2.17;0.80;;;25.20;42.10;;;;;;5043139;28;20017;-68
2022/06/28 11:32:43;;;;;;;1.35;0.70;;;25.20;42.30;;;;;;5048394;28;20115;-67
2022/06/28 11:35:15;;;;;;;2.70;1.10;;;25.10;42.10;;;;;;5047743;28;20009;-67
2022/06/28 11:37:55;;;;;;;1.95;0.82;;;25.10;42.00;;;;;;5042044;28;20026;-67
2022/06/28 11:40:27;;;;;;;1.33;0.60;;;25.30;42.60;;;;;;5049197;28;20082;-70
2022/06/28 11:43:09;;;;;;;1.02;0.60;;;25.40;42.70;;;;;;5046106;28;20024;-67
2022/06/28 11:45:43;;;;;;;2.63;1.00;;;25.70;42.90;;;;;;5047483;28;20044;-67
2022/06/28 11:48:14;;;;;;;3.50;0.95;;;25.80;42.20;;;;;;5043507;28;20025;-67
2022/06/28 11:50:51;;;;;;;2.30;0.77;;;25.80;42.70;;;;;;5043349;28;20052;-68
2022/06/28 11:53:17;;;;;;;2.47;0.93;;;26.00;42.80;;;;;;5042622;28;20116;-68
2022/06/28 11:55:48;;;;;;;1.42;0.50;;;26.20;42.20;;;;;;5047119;28;20020;-68
2022/06/28 11:58:14;;;;;;;1.38;0.73;;;26.20;42.00;;;;;;5044549;28;20033;-69
2022/06/28 12:00:41;;;;;;;1.60;0.60;;;26.40;42.10;;;;;;5039136;28;20041;-68
2022/06/28 12:03:07;;;;;;;1.40;0.75;;;26.50;41.70;;;;;;5041307;28;20029;-68
2022/06/28 12:05:34;;;;;;;1.88;0.80;;;26.50;41.40;;;;;;5043486;28;20052;-68
2022/06/28 12:08:01;;;;;;;4.97;1.45;;;26.60;41.10;;;;;;5040971;28;20569;-69
2022/06/28 12:10:33;;;;;;;2.13;0.90;;;26.30;40.20;;;;;;5039209;28;20426;-68
2022/06/28 12:13:08;;;;;;;3.15;0.77;;;26.30;41.10;;;;;;5038353;28;20022;-69
2022/06/28 12:15:34;;;;;;;1.63;0.77;;;26.50;41.50;;;;;;5044009;28;20163;-69
2022/06/28 12:18:02;;;;;;;1.65;0.60;;;26.90;41.60;;;;;;5037392;28;20107;-68
2022/06/28 12:20:28;;;;;;;1.92;0.80;;;27.00;41.20;;;;;;5039985;28;20029;-69
2022/06/28 12:22:59;;;;;;;1.98;0.90;;;27.10;40.90;;;;;;5039749;28;20025;-69
2022/06/28 12:25:25;;;;;;;3.80;0.80;;;27.20;41.20;;;;;;5037040;28;20040;-69
2022/06/28 12:27:50;;;;;;;2.13;0.88;;;27.30;41.30;;;;;;5042833;28;20070;-69
2022/06/28 12:30:16;;;;;;;2.10;0.70;;;27.40;40.70;;;;;;5037015;28;20053;-69
2022/06/28 12:32:42;;;;;;;0.95;0.60;;;27.30;41.10;;;;;;5045256;28;20074;-69
2022/06/28 12:35:09;;;;;;;1.23;0.60;;;27.40;41.20;;;;;;5043672;28;20024;-68
2022/06/28 12:37:35;;;;;;;1.25;0.60;;;27.60;41.30;;;;;;5042106;28;20037;-68
2022/06/28 12:40:03;;;;;;;1.02;0.40;;;27.70;41.30;;;;;;5044641;28;20021;-69
2022/06/28 12:42:30;;;;;;;2.50;0.80;;;27.70;41.20;;;;;;5042155;28;20017;-68
2022/06/28 12:45:02;;;;;;;1.50;0.75;;;27.70;41.20;;;;;;5044841;28;20082;-69
2022/06/28 12:47:29;;;;;;;2.33;0.88;;;27.50;40.70;;;;;;5045065;28;20048;-69
2022/06/28 12:49:56;;;;;;;2.08;0.80;;;27.20;40.60;;;;;;5040384;28;20437;-68
2022/06/28 12:52:22;;;;;;;1.30;0.70;;;27.00;40.00;;;;;;5041108;28;20086;-68
2022/06/28 12:54:47;;;;;;;5.65;3.50;;;26.60;40.60;;;;;;5047893;28;20481;-69
2022/06/28 12:57:13;;;;;;;3.25;1.55;;;26.70;41.30;;;;;;5043159;28;20036;-69
2022/06/28 12:59:38;;;;;;;1.83;1.10;;;26.80;41.30;;;;;;5045033;28;20026;-69
2022/06/28 13:02:04;;;;;;;2.40;1.40;;;26.70;41.10;;;;;;5049581;28;20413;-68
2022/06/28 13:04:30;;;;;;;2.28;1.20;;;26.90;41.30;;;;;;5040685;28;20096;-69